地図

経路データ

SID SEASON NUMBER BASIN SUBBASIN NAME ISO_TIME NATURE LAT LON WMO_WIND WMO_PRES WMO_AGENCY TRACK_TYPE DIST2LAND LANDFALL IFLAG USA_AGENCY USA_ATCF_ID USA_LAT USA_LON USA_RECORD USA_STATUS USA_WIND USA_PRES USA_SSHS USA_R34_NE USA_R34_SE USA_R34_SW USA_R34_NW USA_R50_NE USA_R50_SE USA_R50_SW USA_R50_NW USA_R64_NE USA_R64_SE USA_R64_SW USA_R64_NW USA_POCI USA_ROCI USA_RMW USA_EYE TOKYO_LAT TOKYO_LON TOKYO_GRADE TOKYO_WIND TOKYO_PRES TOKYO_R50_DIR TOKYO_R50_LONG TOKYO_R50_SHORT TOKYO_R30_DIR TOKYO_R30_LONG TOKYO_R30_SHORT TOKYO_LAND CMA_LAT CMA_LON CMA_CAT CMA_WIND CMA_PRES HKO_LAT HKO_LON HKO_CAT HKO_WIND HKO_PRES NEWDELHI_LAT NEWDELHI_LON NEWDELHI_GRADE NEWDELHI_WIND NEWDELHI_PRES NEWDELHI_CI NEWDELHI_DP NEWDELHI_POCI REUNION_LAT REUNION_LON REUNION_TYPE REUNION_WIND REUNION_PRES REUNION_TNUM REUNION_CI REUNION_RMW REUNION_R34_NE REUNION_R34_SE REUNION_R34_SW REUNION_R34_NW REUNION_R50_NE REUNION_R50_SE REUNION_R50_SW REUNION_R50_NW REUNION_R64_NE REUNION_R64_SE REUNION_R64_SW REUNION_R64_NW BOM_LAT BOM_LON BOM_TYPE BOM_WIND BOM_PRES BOM_TNUM BOM_CI BOM_RMW BOM_R34_NE BOM_R34_SE BOM_R34_SW BOM_R34_NW BOM_R50_NE BOM_R50_SE BOM_R50_SW BOM_R50_NW BOM_R64_NE BOM_R64_SE BOM_R64_SW BOM_R64_NW BOM_ROCI BOM_POCI BOM_EYE BOM_POS_METHOD BOM_PRES_METHOD NADI_LAT NADI_LON NADI_CAT NADI_WIND NADI_PRES WELLINGTON_LAT WELLINGTON_LON WELLINGTON_WIND WELLINGTON_PRES DS824_LAT DS824_LON DS824_STAGE DS824_WIND DS824_PRES TD9636_LAT TD9636_LON TD9636_STAGE TD9636_WIND TD9636_PRES TD9635_LAT TD9635_LON TD9635_WIND TD9635_PRES TD9635_ROCI NEUMANN_LAT NEUMANN_LON NEUMANN_CLASS NEUMANN_WIND NEUMANN_PRES MLC_LAT MLC_LON MLC_CLASS MLC_WIND MLC_PRES USA_GUST BOM_GUST BOM_GUST_PER REUNION_GUST REUNION_GUST_PER USA_SEAHGT USA_SEARAD_NE USA_SEARAD_SE USA_SEARAD_SW USA_SEARAD_NW STORM_SPEED STORM_DIR
1966155N13276 1966 31 NA NA ALMA 1966-06-04 06:00:00 TS 12.7000 -84.0000 25 hurdat_atl main 0 0 O_____________ hurdat_atl AL011966 12.7000 -84.0000 TD 25 -1 7 331
1966155N13276 1966 31 NA NA ALMA 1966-06-04 09:00:00 TS 12.9925 -84.1599 main 0 0 P_____________ AL011966 12.9925 -84.1599 TD 25 -1 7 334
1966155N13276 1966 31 NA NA ALMA 1966-06-04 12:00:00 TS 13.3000 -84.3000 25 hurdat_atl main 0 0 O_____________ hurdat_atl AL011966 13.3000 -84.3000 TD 25 -1 7 339
1966155N13276 1966 31 NA NA ALMA 1966-06-04 15:00:00 TS 13.6350 -84.4076 main 0 0 P_____________ AL011966 13.6350 -84.4076 TD 25 -1 7 345
1966155N13276 1966 31 NA NA ALMA 1966-06-04 18:00:00 TS 14.0000 -84.5000 25 hurdat_atl main 0 0 O_____________ hurdat_atl AL011966 14.0000 -84.5000 TD 25 -1 8 346
1966155N13276 1966 31 NA NA ALMA 1966-06-04 21:00:00 TS 14.4000 -84.6075 main 0 0 P_____________ AL011966 14.4000 -84.6075 TD 25 -1 8 346
1966155N13276 1966 31 NA NA ALMA 1966-06-05 00:00:00 TS 14.8000 -84.7000 25 hurdat_atl main 0 0 O_____________ hurdat_atl AL011966 14.8000 -84.7000 TD 25 -1 8 349
1966155N13276 1966 31 NA NA ALMA 1966-06-05 03:00:00 TS 15.1500 -84.7650 main 0 0 P_____________ AL011966 15.1500 -84.7650 TD 25 -1 7 352
1966155N13276 1966 31 NA NA ALMA 1966-06-05 06:00:00 TS 15.5000 -84.8000 25 hurdat_atl main 0 0 O_____________ hurdat_atl AL011966 15.5000 -84.8000 TD 25 -1 8 356
1966155N13276 1966 31 NA CS ALMA 1966-06-05 09:00:00 TS 15.9075 -84.8075 main 0 0 P_____________ AL011966 15.9075 -84.8075 TD 27 -1 8 1
1966155N13276 1966 31 NA CS ALMA 1966-06-05 12:00:00 TS 16.3000 -84.8000 30 1006 hurdat_atl main 44 44 O_____________ hurdat_atl AL011966 16.3000 -84.8000 TD 30 1006 -1 7 0
1966155N13276 1966 31 NA CS ALMA 1966-06-05 15:00:00 TS 16.6300 -84.8075 main 78 78 P_____________ AL011966 16.6300 -84.8075 TD 30 -1 6 1
1966155N13276 1966 31 NA CS ALMA 1966-06-05 18:00:00 TS 16.9000 -84.8000 30 hurdat_atl main 111 111 O_____________ hurdat_atl AL011966 16.9000 -84.8000 TD 30 -1 5 4
1966155N13276 1966 31 NA CS ALMA 1966-06-05 21:00:00 TS 17.1150 -84.7725 main 134 134 P_____________ AL011966 17.1150 -84.7725 TD 30 -1 4 13
1966155N13276 1966 31 NA CS ALMA 1966-06-06 00:00:00 TS 17.3000 -84.7000 30 hurdat_atl main 156 156 O_____________ hurdat_atl AL011966 17.3000 -84.7000 TD 30 -1 4 28
1966155N13276 1966 31 NA CS ALMA 1966-06-06 03:00:00 TS 17.5000 -84.5575 main 179 179 P_____________ AL011966 17.5000 -84.5575 TD 30 -1 5 35
1966155N13276 1966 31 NA CS ALMA 1966-06-06 06:00:00 TS 17.7000 -84.4000 30 hurdat_atl main 203 203 O_____________ hurdat_atl AL011966 17.7000 -84.4000 TD 30 -1 5 33
1966155N13276 1966 31 NA CS ALMA 1966-06-06 09:00:00 TS 17.9000 -84.2850 main 227 227 P_____________ AL011966 17.9000 -84.2850 TD 35 0 4 25
1966155N13276 1966 31 NA CS ALMA 1966-06-06 12:00:00 TS 18.1000 -84.2000 40 996 hurdat_atl main 251 251 O_____________ hurdat_atl AL011966 18.1000 -84.2000 TS 40 996 0 4 19
1966155N13276 1966 31 NA CS ALMA 1966-06-06 15:00:00 TS 18.3000 -84.1425 main 276 276 P_____________ AL011966 18.3000 -84.1425 TS 55 993 0 4 13
1966155N13276 1966 31 NA CS ALMA 1966-06-06 18:00:00 TS 18.5000 -84.1000 70 990 hurdat_atl main 297 297 O_____________ hurdat_atl AL011966 18.5000 -84.1000 HU 70 990 1 4 12
1966155N13276 1966 31 NA CS ALMA 1966-06-06 21:00:00 TS 18.7075 -84.0500 main 322 306 P_____________ AL011966 18.7075 -84.0500 HU 75 990 1 4 13
1966155N13276 1966 31 NA CS ALMA 1966-06-07 00:00:00 TS 18.9000 -84.0000 80 990 hurdat_atl main 306 286 O_____________ hurdat_atl AL011966 18.9000 -84.0000 HU 80 990 1 4 16
1966155N13276 1966 31 NA CS ALMA 1966-06-07 03:00:00 TS 19.0650 -83.9500 main 281 271 P_____________ AL011966 19.0650 -83.9500 HU 80 988 1 3 17
1966155N13276 1966 31 NA CS ALMA 1966-06-07 06:00:00 TS 19.2000 -83.9000 80 986 hurdat_atl main 271 261 O_____________ hurdat_atl AL011966 19.2000 -83.9000 HU 80 986 1 3 22
1966155N13276 1966 31 NA CS ALMA 1966-06-07 09:00:00 TS 19.3000 -83.8500 main 256 246 P_____________ AL011966 19.3000 -83.8500 HU 82 984 1 2 27
1966155N13276 1966 31 NA CS ALMA 1966-06-07 12:00:00 TS 19.4000 -83.8000 85 983 hurdat_atl main 246 236 O_____________ hurdat_atl AL011966 19.4000 -83.8000 HU 85 983 2 3 20
1966155N13276 1966 31 NA CS ALMA 1966-06-07 15:00:00 TS 19.5350 -83.7575 main 236 211 P_____________ AL011966 19.5350 -83.7575 HU 85 981 2 3 17
1966155N13276 1966 31 NA CS ALMA 1966-06-07 18:00:00 TS 19.7000 -83.7000 85 hurdat_atl main 211 197 I_____________ hurdat_atl AL011966 19.7000 -83.7000 HU 85 979 2 3 21
1966155N13276 1966 31 NA CS ALMA 1966-06-07 21:00:00 TS 19.8400 -83.6297 main 197 162 P_____________ AL011966 19.8400 -83.6297 HU 85 977 2 4 25
1966155N13276 1966 31 NA CS ALMA 1966-06-08 00:00:00 TS 20.1000 -83.5000 85 976 hurdat_atl main 162 113 O_____________ hurdat_atl AL011966 20.1000 -83.5000 HU 85 976 2 8 25
1966155N13276 1966 31 NA CS ALMA 1966-06-08 03:00:00 TS 20.5676 -83.2725 main 103 30 P_____________ AL011966 20.5676 -83.2725 HU 85 978 2 12 23
1966155N13276 1966 31 NA CS ALMA 1966-06-08 06:00:00 TS 21.2000 -83.0000 85 980 hurdat_atl main 30 0 O_____________ hurdat_atl AL011966 21.2000 -83.0000 HU 85 980 2 15 21
1966155N13276 1966 31 NA CS ALMA 1966-06-08 09:00:00 TS 21.9201 -82.7204 main 11 0 P_____________ AL011966 21.9201 -82.7204 HU 87 977 2 16 17
1966155N13276 1966 31 NA CS ALMA 1966-06-08 12:00:00 TS 22.7000 -82.5000 90 hurdat_atl main 0 0 I_____________ hurdat_atl AL011966 22.7000 -82.5000 HU 90 975 2 16 11
1966155N13276 1966 31 NA NA ALMA 1966-06-08 15:00:00 TS 23.4499 -82.3974 main 33 33 P_____________ AL011966 23.4499 -82.3974 HU 100 972 3 15 3
1966155N13276 1966 31 NA NA ALMA 1966-06-08 18:00:00 TS 24.2000 -82.4000 110 970 hurdat_atl main 122 122 O_____________ hurdat_atl AL011966 24.2000 -82.4000 HU 110 970 3 15 358
1966155N13276 1966 31 NA GM ALMA 1966-06-08 21:00:00 TS 24.9424 -82.4405 main 125 91 P_____________ AL011966 24.9424 -82.4405 HU 105 972 3 15 353
1966155N13276 1966 31 NA GM ALMA 1966-06-09 00:00:00 TS 25.7000 -82.6000 100 974 hurdat_atl main 91 66 O_____________ hurdat_atl AL011966 25.7000 -82.6000 HU 100 974 3 16 346
1966155N13276 1966 31 NA GM ALMA 1966-06-09 03:00:00 TS 26.4999 -82.8828 main 68 59 P_____________ AL011966 26.4999 -82.8828 HU 95 973 2 17 339
1966155N13276 1966 31 NA GM ALMA 1966-06-09 06:00:00 TS 27.3000 -83.3000 90 hurdat_atl main 69 66 I_____________ hurdat_atl AL011966 27.3000 -83.3000 HU 90 972 2 18 331
1966155N13276 1966 31 NA GM ALMA 1966-06-09 09:00:00 TS 28.1031 -83.8860 main 100 100 P_____________ AL011966 28.1031 -83.8860 HU 87 971 2 18 327
1966155N13276 1966 31 NA GM ALMA 1966-06-09 12:00:00 TS 28.8000 -84.4000 85 970 hurdat_atl main 111 53 O_____________ hurdat_atl AL011966 28.8000 -84.4000 HU 85 970 2 14 332
1966155N13276 1966 31 NA GM ALMA 1966-06-09 15:00:00 TS 29.3170 -84.6209 main 53 14 P_____________ AL011966 29.3170 -84.6209 HU 82 975 1 9 349
1966155N13276 1966 31 NA GM ALMA 1966-06-09 18:00:00 TS 29.7000 -84.6000 80 981 hurdat_atl main 14 0 O_____________ hurdat_atl AL011966 29.7000 -84.6000 HU 80 981 1 7 12
1966155N13276 1966 31 NA GM ALMA 1966-06-09 21:00:00 TS 30.0147 -84.4473 main 0 0 P_____________ AL011966 30.0147 -84.4473 HU 70 979 1 7 36
1966155N13276 1966 31 NA NA ALMA 1966-06-10 00:00:00 TS 30.3000 -84.1000 60 977 hurdat_atl main 0 0 O_____________ hurdat_atl AL011966 30.3000 -84.1000 TS 60 977 0 10 50
1966155N13276 1966 31 NA NA ALMA 1966-06-10 03:00:00 TS 30.6427 -83.5951 main 0 0 P_____________ AL011966 30.6427 -83.5951 TS 57 0 12 54
1966155N13276 1966 31 NA NA ALMA 1966-06-10 06:00:00 TS 31.0000 -83.0000 55 hurdat_atl main 0 0 O_____________ hurdat_atl AL011966 31.0000 -83.0000 TS 55 0 12 53
1966155N13276 1966 31 NA NA ALMA 1966-06-10 09:00:00 TS 31.3723 -82.4500 main 0 0 P_____________ AL011966 31.3723 -82.4500 TS 50 0 12 53
1966155N13276 1966 31 NA NA ALMA 1966-06-10 12:00:00 TS 31.7000 -81.9000 45 hurdat_atl main 0 0 O_____________ hurdat_atl AL011966 31.7000 -81.9000 TS 45 0 11 59
1966155N13276 1966 31 NA NA ALMA 1966-06-10 15:00:00 TS 31.9222 -81.3568 main 0 0 P_____________ AL011966 31.9222 -81.3568 TS 42 0 10 67
1966155N13276 1966 31 NA NA ALMA 1966-06-10 18:00:00 TS 32.1000 -80.8000 40 hurdat_atl main 0 0 O_____________ hurdat_atl AL011966 32.1000 -80.8000 TS 40 0 10 69
1966155N13276 1966 31 NA NA ALMA 1966-06-10 21:00:00 TS 32.2846 -80.2218 main 24 22 P_____________ AL011966 32.2846 -80.2218 TS 40 0 11 68
1966155N13276 1966 31 NA NA ALMA 1966-06-11 00:00:00 TS 32.5000 -79.6000 40 997 hurdat_atl main 35 35 O_____________ hurdat_atl AL011966 32.5000 -79.6000 TS 40 997 0 12 65
1966155N13276 1966 31 NA NA ALMA 1966-06-11 03:00:00 TS 32.7847 -78.9224 main 51 50 P_____________ AL011966 32.7847 -78.9224 TS 40 995 0 13 63
1966155N13276 1966 31 NA NA ALMA 1966-06-11 06:00:00 TS 33.1000 -78.2000 40 hurdat_atl main 89 62 I_____________ hurdat_atl AL011966 33.1000 -78.2000 TS 40 993 0 14 62
1966155N13276 1966 31 NA NA ALMA 1966-06-11 09:00:00 TS 33.4449 -77.4433 main 78 71 P_____________ AL011966 33.4449 -77.4433 TS 40 991 0 14 64
1966155N13276 1966 31 NA NA ALMA 1966-06-11 12:00:00 TS 33.7000 -76.7000 40 990 hurdat_atl main 109 109 O_____________ hurdat_atl AL011966 33.7000 -76.7000 TS 40 990 0 12 76
1966155N13276 1966 31 NA NA ALMA 1966-06-11 15:00:00 TS 33.7445 -76.0264 main 120 120 P_____________ AL011966 33.7445 -76.0264 TS 52 991 0 11 90
1966155N13276 1966 31 NA NA ALMA 1966-06-11 18:00:00 TS 33.7000 -75.4000 65 993 hurdat_atl main 150 150 O_____________ hurdat_atl AL011966 33.7000 -75.4000 HU 65 993 1 11 95
1966155N13276 1966 31 NA NA ALMA 1966-06-11 21:00:00 TS 33.6551 -74.7544 main 191 191 P_____________ AL011966 33.6551 -74.7544 HU 67 995 1 10 90
1966155N13276 1966 31 NA NA ALMA 1966-06-12 00:00:00 TS 33.7000 -74.2000 70 998 hurdat_atl main 234 234 O_____________ hurdat_atl AL011966 33.7000 -74.2000 HU 70 998 1 9 70
1966155N13276 1966 31 NA NA ALMA 1966-06-12 03:00:00 TS 33.9547 -73.7756 main 248 246 P_____________ AL011966 33.9547 -73.7756 HU 70 997 1 8 44
1966155N13276 1966 31 NA NA ALMA 1966-06-12 06:00:00 TS 34.3000 -73.5000 70 997 hurdat_atl main 246 232 O_____________ hurdat_atl AL011966 34.3000 -73.5000 HU 70 997 1 7 29
1966155N13276 1966 31 NA NA ALMA 1966-06-12 09:00:00 TS 34.5923 -73.3472 main 240 222 P_____________ AL011966 34.5923 -73.3472 HU 65 995 1 6 15
1966155N13276 1966 31 NA NA ALMA 1966-06-12 12:00:00 TS 34.9000 -73.3000 60 994 hurdat_atl main 222 209 O_____________ hurdat_atl AL011966 34.9000 -73.3000 TS 60 994 0 7 5
1966155N13276 1966 31 NA NA ALMA 1966-06-12 15:00:00 TS 35.2425 -73.2848 main 209 199 P_____________ AL011966 35.2425 -73.2848 TS 60 995 0 7 0
1966155N13276 1966 31 NA NA ALMA 1966-06-12 18:00:00 TS 35.6000 -73.3000 60 hurdat_atl main 199 197 I_____________ hurdat_atl AL011966 35.6000 -73.3000 TS 60 996 0 7 358
1966155N13276 1966 31 NA NA ALMA 1966-06-12 21:00:00 TS 35.9500 -73.2852 main 198 198 P_____________ AL011966 35.9500 -73.2852 TS 57 997 0 7 0
1966155N13276 1966 31 NA NA ALMA 1966-06-13 00:00:00 TS 36.3000 -73.3000 55 999 hurdat_atl main 205 203 O_____________ hurdat_atl AL011966 36.3000 -73.3000 TS 55 999 0 7 353
1966155N13276 1966 31 NA NA ALMA 1966-06-13 03:00:00 TS 36.6575 -73.3997 main 211 197 P_____________ AL011966 36.6575 -73.3997 TS 52 999 0 7 347
1966155N13276 1966 31 NA NA ALMA 1966-06-13 06:00:00 TS 37.0000 -73.5000 50 hurdat_atl main 197 172 I_____________ hurdat_atl AL011966 37.0000 -73.5000 TS 50 1000 0 7 349
1966155N13276 1966 31 NA NA ALMA 1966-06-13 09:00:00 TS 37.3074 -73.5597 main 172 158 P_____________ AL011966 37.3074 -73.5597 TS 47 1001 0 6 1
1966155N13276 1966 31 NA NA ALMA 1966-06-13 12:00:00 TS 37.6000 -73.5000 45 1002 hurdat_atl main 160 154 O_____________ hurdat_atl AL011966 37.6000 -73.5000 TS 45 1002 0 6 23
1966155N13276 1966 31 NA NA ALMA 1966-06-13 15:00:00 TS 37.8700 -73.2596 main 163 163 P_____________ AL011966 37.8700 -73.2596 TS 45 0 8 38
1966155N13276 1966 31 NA NA ALMA 1966-06-13 18:00:00 ET 38.2000 -72.9000 45 hurdat_atl main 185 177 O_____________ hurdat_atl AL011966 38.2000 -72.9000 EX 45 -4 10 37
1966155N13276 1966 31 NA NA ALMA 1966-06-13 21:00:00 ET 38.6400 -72.5146 main 184 178 P_____________ AL011966 38.6400 -72.5146 EX 42 -4 12 32
1966155N13276 1966 31 NA NA ALMA 1966-06-14 00:00:00 ET 39.2000 -72.1000 40 hurdat_atl main 183 130 O_____________ hurdat_atl AL011966 39.2000 -72.1000 EX 40 -4 14 27
1966155N13276 1966 31 NA NA ALMA 1966-06-14 03:00:00 ET 39.8699 -71.6997 main 125 90 P_____________ AL011966 39.8699 -71.6997 EX 40 -4 15 24
1966155N13276 1966 31 NA NA ALMA 1966-06-14 06:00:00 ET 40.6000 -71.3000 40 hurdat_atl main 90 23 O_____________ hurdat_atl AL011966 40.6000 -71.3000 EX 40 -4 16 23
1966155N13276 1966 31 NA NA ALMA 1966-06-14 09:00:00 ET 41.3102 -70.9014 main 23 0 P_____________ AL011966 41.3102 -70.9014 EX 40 -4 15 23
1966155N13276 1966 31 NA NA ALMA 1966-06-14 12:00:00 ET 42.0000 -70.5000 40 hurdat_atl main 8 O_____________ hurdat_atl AL011966 42.0000 -70.5000 EX 40 -4 15 23

IBTrACS Databaseについて

本データベースは、米国NOAAが公開する1842年以降の世界の熱帯低気圧のベストトラックデータアーカイブInternational Best Track Archive for Climate Stewardship (IBTrACS)を、ウェブで閲覧しやすい形式に変換したものです。

最終更新日:2021-12-06